sensor_id;sensor_type;location;lat;lon;timestamp;pressure;altitude;pressure_sealevel;temperature;humidity
53932;BME280;39844;52.496;13.482;2023-03-15T00:05:05;100525.06;;;2.81;75.82
53932;BME280;39844;52.496;13.482;2023-03-15T00:10:33;100546.59;;;2.77;75.13
53932;BME280;39844;52.496;13.482;2023-03-15T00:16:02;100544.78;;;2.74;75.20
53932;BME280;39844;52.496;13.482;2023-03-15T00:18:27;100556.88;;;2.74;75.39
53932;BME280;39844;52.496;13.482;2023-03-15T00:20:53;100561.13;;;2.72;75.51
53932;BME280;39844;52.496;13.482;2023-03-15T00:23:19;100567.16;;;2.71;75.74
53932;BME280;39844;52.496;13.482;2023-03-15T00:25:46;100567.13;;;2.69;75.43
53932;BME280;39844;52.496;13.482;2023-03-15T00:28:12;100573.16;;;2.70;75.62
53932;BME280;39844;52.496;13.482;2023-03-15T00:30:37;100579.22;;;2.70;75.81
53932;BME280;39844;52.496;13.482;2023-03-15T00:33:03;100575.75;;;2.70;76.04
53932;BME280;39844;52.496;13.482;2023-03-15T00:35:28;100581.78;;;2.69;75.25
53932;BME280;39844;52.496;13.482;2023-03-15T00:37:56;100584.31;;;2.67;76.06
53932;BME280;39844;52.496;13.482;2023-03-15T00:40:22;100590.31;;;2.65;75.48
53932;BME280;39844;52.496;13.482;2023-03-15T00:42:48;100594.63;;;2.64;75.85
53932;BME280;39844;52.496;13.482;2023-03-15T00:45:13;100598.13;;;2.66;76.01
53932;BME280;39844;52.496;13.482;2023-03-15T00:47:38;100606.72;;;2.65;75.91
53932;BME280;39844;52.496;13.482;2023-03-15T00:50:04;100608.41;;;2.63;75.89
53932;BME280;39844;52.496;13.482;2023-03-15T00:52:33;100619.59;;;2.62;75.15
53932;BME280;39844;52.496;13.482;2023-03-15T00:54:59;100610.13;;;2.63;75.39
53932;BME280;39844;52.496;13.482;2023-03-15T00:57:24;100621.34;;;2.62;75.30
53932;BME280;39844;52.496;13.482;2023-03-15T00:59:50;100613.50;;;2.60;75.51
53932;BME280;39844;52.496;13.482;2023-03-15T01:02:15;100621.28;;;2.60;75.79
53932;BME280;39844;52.496;13.482;2023-03-15T01:04:40;100621.25;;;2.59;75.53
53932;BME280;39844;52.496;13.482;2023-03-15T01:07:06;100628.97;;;2.57;75.98
53932;BME280;39844;52.496;13.482;2023-03-15T01:09:31;100627.22;;;2.56;76.02
53932;BME280;39844;52.496;13.482;2023-03-15T01:11:57;100628.06;;;2.55;75.94
53932;BME280;39844;52.496;13.482;2023-03-15T01:14:22;100631.44;;;2.52;75.83
53932;BME280;39844;52.496;13.482;2023-03-15T01:16:48;100638.38;;;2.53;76.24
53932;BME280;39844;52.496;13.482;2023-03-15T01:19:14;100635.72;;;2.52;76.86
53932;BME280;39844;52.496;13.482;2023-03-15T01:21:39;100641.72;;;2.49;76.58
53932;BME280;39844;52.496;13.482;2023-03-15T01:24:05;100653.84;;;2.50;76.70
53932;BME280;39844;52.496;13.482;2023-03-15T01:26:30;100655.53;;;2.48;76.90
53932;BME280;39844;52.496;13.482;2023-03-15T01:28:56;100656.31;;;2.46;76.97
53932;BME280;39844;52.496;13.482;2023-03-15T01:31:24;100664.03;;;2.44;77.00
53932;BME280;39844;52.496;13.482;2023-03-15T01:33:50;100665.69;;;2.42;77.72
53932;BME280;39844;52.496;13.482;2023-03-15T01:36:16;100659.59;;;2.39;77.32
53932;BME280;39844;52.496;13.482;2023-03-15T01:38:41;100662.09;;;2.37;77.54
53932;BME280;39844;52.496;13.482;2023-03-15T01:41:07;100668.06;;;2.35;77.71
53932;BME280;39844;52.496;13.482;2023-03-15T01:43:33;100664.59;;;2.34;77.79
53932;BME280;39844;52.496;13.482;2023-03-15T01:49:06;100681.81;;;2.32;77.92
53932;BME280;39844;52.496;13.482;2023-03-15T01:51:46;100682.66;;;2.31;77.73
53932;BME280;39844;52.496;13.482;2023-03-15T01:56:45;100683.50;;;2.30;77.47
53932;BME280;39844;52.496;13.482;2023-03-15T01:59:15;100679.13;;;2.29;77.97
53932;BME280;39844;52.496;13.482;2023-03-15T02:01:43;100679.94;;;2.27;77.91
53932;BME280;39844;52.496;13.482;2023-03-15T02:04:12;100678.97;;;2.23;78.44
53932;BME280;39844;52.496;13.482;2023-03-15T02:06:40;100676.41;;;2.23;78.77
53932;BME280;39844;52.496;13.482;2023-03-15T02:09:08;100681.47;;;2.20;78.94
53932;BME280;39844;52.496;13.482;2023-03-15T02:11:35;100693.50;;;2.18;79.38
53932;BME280;39844;52.496;13.482;2023-03-15T02:14:02;100688.16;;;2.14;79.57
53932;BME280;39844;52.496;13.482;2023-03-15T02:16:29;100691.53;;;2.10;79.65
53932;BME280;39844;52.496;13.482;2023-03-15T02:18:55;100695.72;;;2.06;80.20
53932;BME280;39844;52.496;13.482;2023-03-15T02:21:44;100697.28;;;2.01;80.36
53932;BME280;39844;52.496;13.482;2023-03-15T02:25:05;100700.59;;;1.96;80.80
53932;BME280;39844;52.496;13.482;2023-03-15T02:27:09;100709.97;;;1.92;81.16
53932;BME280;39844;52.496;13.482;2023-03-15T02:29:35;100709.00;;;1.88;81.08
53932;BME280;39844;52.496;13.482;2023-03-15T02:32:01;100710.63;;;1.85;81.20
53932;BME280;39844;52.496;13.482;2023-03-15T02:34:26;100708.81;;;1.82;81.51
53932;BME280;39844;52.496;13.482;2023-03-15T02:36:52;100719.09;;;1.81;81.82
53932;BME280;39844;52.496;13.482;2023-03-15T02:39:19;100713.88;;;1.78;82.18
53932;BME280;39844;52.496;13.482;2023-03-15T02:42:05;100728.44;;;1.76;81.84
53932;BME280;39844;52.496;13.482;2023-03-15T02:44:36;100726.69;;;1.75;82.02
53932;BME280;39844;52.496;13.482;2023-03-15T02:47:08;100736.13;;;1.73;82.33
53932;BME280;39844;52.496;13.482;2023-03-15T02:49:39;100741.19;;;1.70;82.45
53932;BME280;39844;52.496;13.482;2023-03-15T02:52:06;100733.25;;;1.65;82.38
53932;BME280;39844;52.496;13.482;2023-03-15T02:54:32;100745.25;;;1.62;82.88
53932;BME280;39844;52.496;13.482;2023-03-15T02:56:57;100741.66;;;1.58;83.61
53932;BME280;39844;52.496;13.482;2023-03-15T02:59:22;100752.75;;;1.54;83.88
53932;BME280;39844;52.496;13.482;2023-03-15T03:01:48;100754.34;;;1.51;84.38
53932;BME280;39844;52.496;13.482;2023-03-15T03:04:13;100757.69;;;1.47;84.90
53932;BME280;39844;52.496;13.482;2023-03-15T03:06:38;100761.09;;;1.46;84.95
53932;BME280;39844;52.496;13.482;2023-03-15T03:09:03;100760.13;;;1.42;85.62
53932;BME280;39844;52.496;13.482;2023-03-15T03:11:29;100767.81;;;1.41;85.77
53932;BME280;39844;52.496;13.482;2023-03-15T03:13:54;100774.63;;;1.39;86.03
53932;BME280;39844;52.496;13.482;2023-03-15T03:16:20;100772.88;;;1.38;86.40
53932;BME280;39844;52.496;13.482;2023-03-15T03:18:45;100778.78;;;1.34;86.27
53932;BME280;39844;52.496;13.482;2023-03-15T03:21:10;100775.28;;;1.32;86.49
53932;BME280;39844;52.496;13.482;2023-03-15T03:23:35;100777.75;;;1.28;86.86
53932;BME280;39844;52.496;13.482;2023-03-15T03:26:02;100786.31;;;1.27;87.14
53932;BME280;39844;52.496;13.482;2023-03-15T03:28:29;100784.47;;;1.23;87.08
53932;BME280;39844;52.496;13.482;2023-03-15T03:30:55;100787.88;;;1.22;87.17
53932;BME280;39844;52.496;13.482;2023-03-15T03:33:21;100789.63;;;1.23;87.72
53932;BME280;39844;52.496;13.482;2023-03-15T03:35:47;100799.16;;;1.24;88.23
53932;BME280;39844;52.496;13.482;2023-03-15T03:38:14;100795.03;;;1.30;87.82
53932;BME280;39844;52.496;13.482;2023-03-15T03:40:40;100803.72;;;1.32;87.83
53932;BME280;39844;52.496;13.482;2023-03-15T03:43:06;100795.22;;;1.36;88.00
53932;BME280;39844;52.496;13.482;2023-03-15T03:45:32;100809.16;;;1.39;87.80
53932;BME280;39844;52.496;13.482;2023-03-15T03:47:57;100805.78;;;1.42;87.79
53932;BME280;39844;52.496;13.482;2023-03-15T03:50:22;100798.94;;;1.44;87.38
53932;BME280;39844;52.496;13.482;2023-03-15T03:52:48;100812.03;;;1.48;87.57
53932;BME280;39844;52.496;13.482;2023-03-15T03:55:13;100810.34;;;1.50;87.45
53932;BME280;39844;52.496;13.482;2023-03-15T03:57:39;100816.53;;;1.54;87.59
53932;BME280;39844;52.496;13.482;2023-03-15T04:00:06;100810.44;;;1.52;86.34
53932;BME280;39844;52.496;13.482;2023-03-15T04:02:31;100818.13;;;1.50;86.48
53932;BME280;39844;52.496;13.482;2023-03-15T04:04:56;100819.75;;;1.47;86.30
53932;BME280;39844;52.496;13.482;2023-03-15T04:07:22;100819.63;;;1.44;86.18
53932;BME280;39844;52.496;13.482;2023-03-15T04:09:47;100829.06;;;1.42;86.43
53932;BME280;39844;52.496;13.482;2023-03-15T04:12:12;100823.78;;;1.39;86.74
53932;BME280;39844;52.496;13.482;2023-03-15T04:14:38;100828.03;;;1.37;86.63
53932;BME280;39844;52.496;13.482;2023-03-15T04:17:03;100833.88;;;1.33;86.87
53932;BME280;39844;52.496;13.482;2023-03-15T04:19:29;100838.13;;;1.31;86.63
53932;BME280;39844;52.496;13.482;2023-03-15T04:21:54;100848.38;;;1.27;86.63
53932;BME280;39844;52.496;13.482;2023-03-15T04:24:20;100855.16;;;1.24;86.57
53932;BME280;39844;52.496;13.482;2023-03-15T04:26:45;100856.81;;;1.22;87.01
53932;BME280;39844;52.496;13.482;2023-03-15T04:29:10;100856.75;;;1.20;86.92
53932;BME280;39844;52.496;13.482;2023-03-15T04:31:35;100866.97;;;1.17;87.18
53932;BME280;39844;52.496;13.482;2023-03-15T04:34:01;100861.69;;;1.14;86.92
53932;BME280;39844;52.496;13.482;2023-03-15T04:36:26;100861.59;;;1.11;86.80
53932;BME280;39844;52.496;13.482;2023-03-15T04:38:51;100858.91;;;1.08;87.22
53932;BME280;39844;52.496;13.482;2023-03-15T04:41:17;100862.28;;;1.07;87.52
53932;BME280;39844;52.496;13.482;2023-03-15T04:43:45;100866.53;;;1.05;87.81
53932;BME280;39844;52.496;13.482;2023-03-15T04:46:11;100855.19;;;1.02;88.14
53932;BME280;39844;52.496;13.482;2023-03-15T04:48:36;100862.09;;;1.01;88.41
53932;BME280;39844;52.496;13.482;2023-03-15T04:51:01;100857.69;;;0.99;88.76
53932;BME280;39844;52.496;13.482;2023-03-15T04:53:27;100865.31;;;0.96;88.95
53932;BME280;39844;52.496;13.482;2023-03-15T04:55:52;100874.78;;;0.95;89.19
53932;BME280;39844;52.496;13.482;2023-03-15T04:58:18;100872.03;;;0.91;88.98
53932;BME280;39844;52.496;13.482;2023-03-15T05:00:43;100876.19;;;0.87;89.28
53932;BME280;39844;52.496;13.482;2023-03-15T05:03:09;100881.34;;;0.87;89.75
53932;BME280;39844;52.496;13.482;2023-03-15T05:05:35;100891.56;;;0.84;89.95
53932;BME280;39844;52.496;13.482;2023-03-15T05:08:00;100891.56;;;0.84;90.28
53932;BME280;39844;52.496;13.482;2023-03-15T05:10:26;100895.00;;;0.83;90.05
53932;BME280;39844;52.496;13.482;2023-03-15T05:12:51;100889.72;;;0.80;90.25
53932;BME280;39844;52.496;13.482;2023-03-15T05:15:17;100900.03;;;0.80;90.26
53932;BME280;39844;52.496;13.482;2023-03-15T05:17:42;100910.38;;;0.80;90.25
53932;BME280;39844;52.496;13.482;2023-03-15T05:20:08;100912.97;;;0.80;90.42
53932;BME280;39844;52.496;13.482;2023-03-15T05:22:34;100921.50;;;0.79;90.35
53932;BME280;39844;52.496;13.482;2023-03-15T05:24:59;100922.41;;;0.80;90.43
53932;BME280;39844;52.496;13.482;2023-03-15T05:27:24;100929.38;;;0.82;90.68
53932;BME280;39844;52.496;13.482;2023-03-15T05:29:49;100932.06;;;0.84;90.68
53932;BME280;39844;52.496;13.482;2023-03-15T05:32:15;100934.72;;;0.87;90.24
53932;BME280;39844;52.496;13.482;2023-03-15T05:34:40;100938.31;;;0.90;90.48
53932;BME280;39844;52.496;13.482;2023-03-15T05:37:05;100939.25;;;0.92;90.30
53932;BME280;39844;52.496;13.482;2023-03-15T05:39:31;100942.84;;;0.96;89.96
53932;BME280;39844;52.496;13.482;2023-03-15T05:41:56;100953.38;;;1.02;90.05
53932;BME280;39844;52.496;13.482;2023-03-15T05:44:21;100950.16;;;1.07;89.69
53932;BME280;39844;52.496;13.482;2023-03-15T05:46:47;100963.31;;;1.13;89.18
53932;BME280;39844;52.496;13.482;2023-03-15T05:49:12;100958.41;;;1.19;89.27
53932;BME280;39844;52.496;13.482;2023-03-15T05:51:37;100962.03;;;1.24;88.96
53932;BME280;39844;52.496;13.482;2023-03-15T05:54:03;100969.19;;;1.32;88.64
53932;BME280;39844;52.496;13.482;2023-03-15T05:56:28;100967.66;;;1.37;88.54
53932;BME280;39844;52.496;13.482;2023-03-15T05:58:53;100981.63;;;1.42;87.31
53932;BME280;39844;52.496;13.482;2023-03-15T06:01:19;100977.38;;;1.44;86.36
53932;BME280;39844;52.496;13.482;2023-03-15T06:03:44;100980.97;;;1.47;86.22
53932;BME280;39844;52.496;13.482;2023-03-15T06:14:22;100996.75;;;1.55;84.65
53932;BME280;39844;52.496;13.482;2023-03-15T06:16:48;101001.97;;;1.56;84.34
53932;BME280;39844;52.496;13.482;2023-03-15T06:19:13;101009.91;;;1.61;84.21
53932;BME280;39844;52.496;13.482;2023-03-15T06:21:38;101013.53;;;1.66;83.99
53932;BME280;39844;52.496;13.482;2023-03-15T06:24:04;101021.53;;;1.72;83.63
53932;BME280;39844;52.496;13.482;2023-03-15T06:26:29;101021.84;;;1.81;84.16
53932;BME280;39844;52.496;13.482;2023-03-15T06:28:55;101025.44;;;1.84;83.10
53932;BME280;39844;52.496;13.482;2023-03-15T06:31:20;101029.88;;;1.88;82.53
53932;BME280;39844;52.496;13.482;2023-03-15T06:33:45;101036.06;;;1.92;82.62
53932;BME280;39844;52.496;13.482;2023-03-15T06:36:11;101042.28;;;1.97;82.71
53932;BME280;39844;52.496;13.482;2023-03-15T06:38:36;101047.56;;;2.00;82.46
53932;BME280;39844;52.496;13.482;2023-03-15T06:41:03;101054.59;;;2.04;82.41
53932;BME280;39844;52.496;13.482;2023-03-15T06:43:28;101059.78;;;2.04;82.69
53932;BME280;39844;52.496;13.482;2023-03-15T06:45:53;101067.53;;;2.04;82.71
53932;BME280;39844;52.496;13.482;2023-03-15T06:48:19;101067.34;;;1.98;83.73
53932;BME280;39844;52.496;13.482;2023-03-15T06:50:44;101064.63;;;1.95;85.12
53932;BME280;39844;52.496;13.482;2023-03-15T06:53:09;101068.81;;;1.91;86.12
53932;BME280;39844;52.496;13.482;2023-03-15T06:55:35;101074.88;;;1.92;87.82
53932;BME280;39844;52.496;13.482;2023-03-15T06:58:00;101077.47;;;1.92;87.77
53932;BME280;39844;52.496;13.482;2023-03-15T07:00:26;101070.63;;;1.94;88.14
53932;BME280;39844;52.496;13.482;2023-03-15T07:02:51;101078.50;;;1.97;87.85
53932;BME280;39844;52.496;13.482;2023-03-15T07:05:16;101083.03;;;2.03;87.92
53932;BME280;39844;52.496;13.482;2023-03-15T07:07:42;101084.00;;;2.06;86.76
53932;BME280;39844;52.496;13.482;2023-03-15T07:13:10;101085.38;;;2.20;86.79
53932;BME280;39844;52.496;13.482;2023-03-15T07:15:36;101090.72;;;2.25;86.59
53932;BME280;39844;52.496;13.482;2023-03-15T07:18:01;101082.22;;;2.29;86.69
53932;BME280;39844;52.496;13.482;2023-03-15T07:20:27;101091.09;;;2.35;86.65
53932;BME280;39844;52.496;13.482;2023-03-15T07:22:52;101094.06;;;2.46;87.27
53932;BME280;39844;52.496;13.482;2023-03-15T07:25:17;101086.75;;;2.60;86.68
53932;BME280;39844;52.496;13.482;2023-03-15T07:27:43;101089.66;;;2.69;85.79
53932;BME280;39844;52.496;13.482;2023-03-15T07:30:09;101089.84;;;2.75;83.79
53932;BME280;39844;52.496;13.482;2023-03-15T07:32:34;101082.31;;;2.82;84.02
53932;BME280;39844;52.496;13.482;2023-03-15T07:34:59;101091.31;;;2.92;83.35
53932;BME280;39844;52.496;13.482;2023-03-15T07:37:26;101087.19;;;2.98;82.91
53932;BME280;39844;52.496;13.482;2023-03-15T07:39:52;101082.91;;;3.00;81.46
53932;BME280;39844;52.496;13.482;2023-03-15T07:42:17;101092.50;;;3.03;81.47
53932;BME280;39844;52.496;13.482;2023-03-15T07:44:42;101095.19;;;3.06;81.73
53932;BME280;39844;52.496;13.482;2023-03-15T07:47:07;101092.56;;;3.04;80.11
53932;BME280;39844;52.496;13.482;2023-03-15T07:49:33;101108.25;;;3.07;80.92
53932;BME280;39844;52.496;13.482;2023-03-15T07:51:58;101108.38;;;3.12;80.67
53932;BME280;39844;52.496;13.482;2023-03-15T07:54:23;101117.84;;;3.11;79.57
53932;BME280;39844;52.496;13.482;2023-03-15T07:56:49;101100.47;;;3.07;78.49
53932;BME280;39844;52.496;13.482;2023-03-15T07:59:14;101122.06;;;3.08;78.81
53932;BME280;39844;52.496;13.482;2023-03-15T08:01:39;101118.75;;;3.12;79.67
53932;BME280;39844;52.496;13.482;2023-03-15T08:04:05;101120.59;;;3.16;79.49
53932;BME280;39844;52.496;13.482;2023-03-15T08:06:30;101120.59;;;3.16;78.48
53932;BME280;39844;52.496;13.482;2023-03-15T08:08:55;101134.59;;;3.21;78.50
53932;BME280;39844;52.496;13.482;2023-03-15T08:11:20;101133.94;;;3.28;78.86
53932;BME280;39844;52.496;13.482;2023-03-15T08:13:46;101135.06;;;3.36;78.72
53932;BME280;39844;52.496;13.482;2023-03-15T08:16:11;101127.44;;;3.41;77.64
53932;BME280;39844;52.496;13.482;2023-03-15T08:18:36;101134.44;;;3.43;76.57
53932;BME280;39844;52.496;13.482;2023-03-15T08:21:02;101138.78;;;3.44;75.68
53932;BME280;39844;52.496;13.482;2023-03-15T08:23:27;101138.91;;;3.47;76.08
53932;BME280;39844;52.496;13.482;2023-03-15T08:25:52;101145.84;;;3.48;75.60
53932;BME280;39844;52.496;13.482;2023-03-15T08:28:17;101147.69;;;3.52;75.81
53932;BME280;39844;52.496;13.482;2023-03-15T08:30:43;101143.41;;;3.53;75.40
53932;BME280;39844;52.496;13.482;2023-03-15T08:33:08;101147.75;;;3.54;74.51
53932;BME280;39844;52.496;13.482;2023-03-15T08:35:34;101154.59;;;3.52;73.73
53932;BME280;39844;52.496;13.482;2023-03-15T08:38:00;101151.06;;;3.48;74.15
53932;BME280;39844;52.496;13.482;2023-03-15T08:40:25;101159.75;;;3.50;74.53
53932;BME280;39844;52.496;13.482;2023-03-15T08:42:51;101163.16;;;3.49;73.81
53932;BME280;39844;52.496;13.482;2023-03-15T08:45:17;101172.75;;;3.52;74.85
53932;BME280;39844;52.496;13.482;2023-03-15T08:47:43;101166.00;;;3.57;75.22
53932;BME280;39844;52.496;13.482;2023-03-15T08:50:11;101179.84;;;3.56;74.03
53932;BME280;39844;52.496;13.482;2023-03-15T08:52:37;101170.25;;;3.53;74.82
53932;BME280;39844;52.496;13.482;2023-03-15T08:55:03;101175.50;;;3.56;75.45
53932;BME280;39844;52.496;13.482;2023-03-15T09:00:37;101186.09;;;3.62;75.38
53932;BME280;39844;52.496;13.482;2023-03-15T09:03:02;101187.94;;;3.66;75.99
53932;BME280;39844;52.496;13.482;2023-03-15T09:05:28;101197.59;;;3.70;75.48
53932;BME280;39844;52.496;13.482;2023-03-15T09:07:53;101191.47;;;3.68;73.36
53932;BME280;39844;52.496;13.482;2023-03-15T09:10:19;101196.59;;;3.67;71.74
53932;BME280;39844;52.496;13.482;2023-03-15T09:12:47;101204.38;;;3.67;72.29
53932;BME280;39844;52.496;13.482;2023-03-15T09:15:13;101208.78;;;3.69;72.05
53932;BME280;39844;52.496;13.482;2023-03-15T09:17:39;101215.00;;;3.74;72.25
53932;BME280;39844;52.496;13.482;2023-03-15T09:20:06;101214.47;;;3.84;72.23
53932;BME280;39844;52.496;13.482;2023-03-15T09:22:31;101209.56;;;3.94;71.72
53932;BME280;39844;52.496;13.482;2023-03-15T09:24:57;101205.56;;;4.05;71.17
53932;BME280;39844;52.496;13.482;2023-03-15T09:27:22;101219.00;;;4.20;70.63
53932;BME280;39844;52.496;13.482;2023-03-15T09:29:47;101217.38;;;4.23;70.00
53932;BME280;39844;52.496;13.482;2023-03-15T09:32:12;101231.94;;;4.18;67.71
53932;BME280;39844;52.496;13.482;2023-03-15T09:34:38;101235.22;;;4.11;67.98
53932;BME280;39844;52.496;13.482;2023-03-15T09:37:03;101239.50;;;4.11;68.35
53932;BME280;39844;52.496;13.482;2023-03-15T09:39:29;101249.81;;;4.08;68.82
53932;BME280;39844;52.496;13.482;2023-03-15T09:41:55;101248.88;;;4.06;69.93
53932;BME280;39844;52.496;13.482;2023-03-15T09:47:27;101252.28;;;4.03;69.04
53932;BME280;39844;52.496;13.482;2023-03-15T09:50:12;101260.94;;;4.04;69.82
53932;BME280;39844;52.496;13.482;2023-03-15T09:52:50;101261.75;;;4.01;68.47
53932;BME280;39844;52.496;13.482;2023-03-15T09:57:51;101275.78;;;4.08;69.12
53932;BME280;39844;52.496;13.482;2023-03-15T10:01:09;101279.41;;;4.13;67.80
53932;BME280;39844;52.496;13.482;2023-03-15T10:03:15;101275.13;;;4.15;66.97
53932;BME280;39844;52.496;13.482;2023-03-15T10:05:46;101276.94;;;4.17;66.21
53932;BME280;39844;52.496;13.482;2023-03-15T10:08:15;101278.06;;;4.25;68.25
53932;BME280;39844;52.496;13.482;2023-03-15T10:16:39;101275.31;;;4.49;66.45
53932;BME280;39844;52.496;13.482;2023-03-15T10:19:12;101280.84;;;4.60;66.52
53932;BME280;39844;52.496;13.482;2023-03-15T10:24:18;101281.03;;;4.67;65.07
53932;BME280;39844;52.496;13.482;2023-03-15T10:26:44;101284.44;;;4.65;64.60
53932;BME280;39844;52.496;13.482;2023-03-15T10:29:16;101289.94;;;4.75;65.57
53932;BME280;39844;52.496;13.482;2023-03-15T10:31:44;101290.00;;;4.78;65.59
53932;BME280;39844;52.496;13.482;2023-03-15T10:34:11;101294.19;;;4.73;64.94
53932;BME280;39844;52.496;13.482;2023-03-15T10:36:36;101293.97;;;4.66;65.53
53932;BME280;39844;52.496;13.482;2023-03-15T10:39:02;101284.94;;;4.53;65.25
53932;BME280;39844;52.496;13.482;2023-03-15T10:41:41;101288.47;;;4.55;67.31
53932;BME280;39844;52.496;13.482;2023-03-15T10:44:19;101290.38;;;4.61;67.51
53932;BME280;39844;52.496;13.482;2023-03-15T10:47:06;101301.53;;;4.57;65.51
53932;BME280;39844;52.496;13.482;2023-03-15T10:49:33;101297.94;;;4.53;64.15
53932;BME280;39844;52.496;13.482;2023-03-15T10:51:59;101294.88;;;4.66;66.07
53932;BME280;39844;52.496;13.482;2023-03-15T10:54:25;101296.19;;;4.82;65.09
53932;BME280;39844;52.496;13.482;2023-03-15T10:57:03;101292.41;;;5.00;64.99
53932;BME280;39844;52.496;13.482;2023-03-15T10:59:32;101294.41;;;5.10;64.35
53932;BME280;39844;52.496;13.482;2023-03-15T11:04:40;101292.31;;;4.97;61.95
53932;BME280;39844;52.496;13.482;2023-03-15T11:07:06;101302.63;;;4.94;63.50
53932;BME280;39844;52.496;13.482;2023-03-15T11:09:58;101296.66;;;4.98;63.89
53932;BME280;39844;52.496;13.482;2023-03-15T11:12:29;101300.22;;;5.02;64.61
53932;BME280;39844;52.496;13.482;2023-03-15T11:15:04;101304.72;;;5.07;64.03
53932;BME280;39844;52.496;13.482;2023-03-15T11:17:33;101302.94;;;5.06;63.24
53932;BME280;39844;52.496;13.482;2023-03-15T11:20:08;101304.81;;;5.10;63.04
53932;BME280;39844;52.496;13.482;2023-03-15T11:22:43;101295.22;;;5.09;62.72
53932;BME280;39844;52.496;13.482;2023-03-15T11:25:13;101306.56;;;5.11;62.78
53932;BME280;39844;52.496;13.482;2023-03-15T11:27:40;101304.03;;;5.13;62.36
53932;BME280;39844;52.496;13.482;2023-03-15T11:30:13;101304.09;;;5.16;61.99
53932;BME280;39844;52.496;13.482;2023-03-15T11:32:39;101314.78;;;5.27;61.80
53932;BME280;39844;52.496;13.482;2023-03-15T11:35:06;101302.84;;;5.35;61.15
53932;BME280;39844;52.496;13.482;2023-03-15T11:37:41;101300.66;;;5.50;61.27
53932;BME280;39844;52.496;13.482;2023-03-15T11:40:17;101297.59;;;5.66;60.69
53932;BME280;39844;52.496;13.482;2023-03-15T11:45:26;101291.63;;;6.04;61.44
53932;BME280;39844;52.496;13.482;2023-03-15T11:47:56;101303.13;;;6.14;58.53
53932;BME280;39844;52.496;13.482;2023-03-15T11:53:30;101300.78;;;6.24;57.98
53932;BME280;39844;52.496;13.482;2023-03-15T11:56:18;101296.78;;;6.40;56.92
53932;BME280;39844;52.496;13.482;2023-03-15T11:58:46;101298.16;;;6.63;56.02
53932;BME280;39844;52.496;13.482;2023-03-15T12:01:24;101290.91;;;6.90;55.15
53932;BME280;39844;52.496;13.482;2023-03-15T12:03:50;101298.00;;;6.97;54.85
53932;BME280;39844;52.496;13.482;2023-03-15T12:11:35;101296.19;;;6.93;54.65
53932;BME280;39844;52.496;13.482;2023-03-15T12:14:02;101289.09;;;6.88;55.48
53932;BME280;39844;52.496;13.482;2023-03-15T12:16:30;101297.69;;;6.82;56.46
53932;BME280;39844;52.496;13.482;2023-03-15T12:18:57;101296.72;;;6.79;54.93
53932;BME280;39844;52.496;13.482;2023-03-15T12:21:32;101305.88;;;6.99;54.07
53932;BME280;39844;52.496;13.482;2023-03-15T12:24:13;101303.84;;;7.29;53.33
53932;BME280;39844;52.496;13.482;2023-03-15T12:26:44;101301.19;;;7.28;51.86
53932;BME280;39844;52.496;13.482;2023-03-15T12:29:17;101297.31;;;7.52;53.18
53932;BME280;39844;52.496;13.482;2023-03-15T12:31:50;101300.44;;;7.86;51.90
53932;BME280;39844;52.496;13.482;2023-03-15T12:34:46;101311.00;;;7.92;50.51
53932;BME280;39844;52.496;13.482;2023-03-15T12:39:44;101306.72;;;7.95;51.31
53932;BME280;39844;52.496;13.482;2023-03-15T12:44:53;101310.03;;;8.39;49.06
53932;BME280;39844;52.496;13.482;2023-03-15T12:47:18;101304.03;;;8.46;49.54
53932;BME280;39844;52.496;13.482;2023-03-15T12:49:44;101307.84;;;8.11;49.44
53932;BME280;39844;52.496;13.482;2023-03-15T12:54:43;101324.59;;;7.70;49.63
53932;BME280;39844;52.496;13.482;2023-03-15T12:57:11;101331.78;;;7.35;49.28
53932;BME280;39844;52.496;13.482;2023-03-15T13:13:42;101326.38;;;7.74;46.26
53932;BME280;39844;52.496;13.482;2023-03-15T13:16:44;101319.56;;;7.83;44.78
53932;BME280;39844;52.496;13.482;2023-03-15T13:22:00;101321.41;;;7.89;45.20
53932;BME280;39844;52.496;13.482;2023-03-15T13:24:55;101311.97;;;7.98;44.32
53932;BME280;39844;52.496;13.482;2023-03-15T13:30:38;101317.28;;;8.60;44.76
53932;BME280;39844;52.496;13.482;2023-03-15T13:35:31;101316.94;;;8.97;41.48
53932;BME280;39844;52.496;13.482;2023-03-15T13:38:24;101320.19;;;8.81;41.25
53932;BME280;39844;52.496;13.482;2023-03-15T13:40:49;101312.94;;;8.59;44.90
53932;BME280;39844;52.496;13.482;2023-03-15T13:43:14;101312.94;;;8.59;45.56
53932;BME280;39844;52.496;13.482;2023-03-15T13:45:41;101312.84;;;8.53;44.22
53932;BME280;39844;52.496;13.482;2023-03-15T13:48:09;101316.25;;;8.46;43.20
53932;BME280;39844;52.496;13.482;2023-03-15T13:50:35;101328.06;;;8.24;42.96
53932;BME280;39844;52.496;13.482;2023-03-15T13:53:01;101322.41;;;7.95;41.97
53932;BME280;39844;52.496;13.482;2023-03-15T13:55:31;101340.31;;;7.73;42.75
53932;BME280;39844;52.496;13.482;2023-03-15T13:57:59;101363.44;;;7.53;44.19
53932;BME280;39844;52.496;13.482;2023-03-15T14:00:29;101388.38;;;7.36;49.50
53932;BME280;39844;52.496;13.482;2023-03-15T14:02:57;101398.88;;;6.95;54.86
53932;BME280;39844;52.496;13.482;2023-03-15T14:05:26;101400.63;;;6.58;58.07
53932;BME280;39844;52.496;13.482;2023-03-15T14:07:58;101405.56;;;6.46;59.65
53932;BME280;39844;52.496;13.482;2023-03-15T14:10:31;101405.31;;;6.36;60.75
53932;BME280;39844;52.496;13.482;2023-03-15T14:13:13;101394.00;;;6.36;61.19
53932;BME280;39844;52.496;13.482;2023-03-15T14:15:43;101395.19;;;6.49;61.72
53932;BME280;39844;52.496;13.482;2023-03-15T14:20:42;101391.78;;;6.90;62.15
53932;BME280;39844;52.496;13.482;2023-03-15T14:23:14;101381.78;;;7.11;60.63